Time;durP1;ratioP1;P1;durP2;ratioP2;P2;SDS_P1;SDS_P2;PMS_P1;PMS_P2;Temp;Humidity;BMP_temperature;BMP_pressure;BME280_temperature;BME280_humidity;BME280_pressure;Samples;Min_cycle;Max_cycle;Signal;HPM_P1;HPM_P2
2023/06/19 00:01:35;;;;;;;10.80;9.67;;;;;;;15.87;100.00;100319.66;1501567;86;21343;-78
2023/06/19 00:04:03;;;;;;;12.50;8.43;;;;;;;15.82;100.00;100325.53;1514013;86;21432;-76
2023/06/19 00:06:30;;;;;;;13.83;9.20;;;;;;;15.82;100.00;100330.05;1507323;86;21352;-76
2023/06/19 00:08:57;;;;;;;13.17;9.00;;;;;;;15.85;100.00;100335.02;1511084;86;22540;-77
2023/06/19 00:11:24;;;;;;;12.13;9.70;;;;;;;15.82;100.00;100328.20;1474894;86;21513;-77
2023/06/19 00:13:53;;;;;;;11.90;9.07;;;;;;;15.83;100.00;100331.72;1498325;86;22761;-78
2023/06/19 00:16:21;;;;;;;11.57;8.33;;;;;;;15.79;100.00;100327.23;1508002;86;21506;-78
2023/06/19 00:18:48;;;;;;;12.90;9.00;;;;;;;15.76;100.00;100327.61;1507117;86;21432;-79
2023/06/19 00:21:15;;;;;;;12.87;8.80;;;;;;;15.73;100.00;100327.46;1508408;86;21514;-81
2023/06/19 00:23:42;;;;;;;19.67;9.20;;;;;;;15.71;100.00;100328.69;1490105;86;21389;-81
2023/06/19 00:26:11;;;;;;;15.40;9.40;;;;;;;15.68;100.00;100328.55;1509952;86;22371;-81
2023/06/19 00:28:39;;;;;;;10.53;9.33;;;;;;;15.62;100.00;100328.39;1488476;86;21542;-82
2023/06/19 00:31:06;;;;;;;13.13;9.70;;;;;;;15.55;100.00;100328.30;1510219;86;22274;-81
2023/06/19 00:33:34;;;;;;;18.37;9.73;;;;;;;15.48;100.00;100327.39;1510112;86;21381;-81
2023/06/19 00:36:01;;;;;;;12.73;10.63;;;;;;;15.44;100.00;100330.91;1509168;86;21477;-82
2023/06/19 00:38:28;;;;;;;15.10;10.17;;;;;;;15.42;100.00;100324.95;1510672;86;21395;-81
2023/06/19 00:40:55;;;;;;;11.23;9.53;;;;;;;15.41;100.00;100318.44;1507073;86;21351;-81
2023/06/19 00:43:22;;;;;;;15.27;9.57;;;;;;;15.42;100.00;100321.42;1505893;86;22328;-81
2023/06/19 00:45:50;;;;;;;9.97;8.90;;;;;;;15.44;100.00;100320.75;1511422;86;21468;-80
2023/06/19 00:48:17;;;;;;;10.80;9.70;;;;;;;15.44;100.00;100308.74;1506214;86;21447;-80
2023/06/19 00:50:45;;;;;;;15.40;9.57;;;;;;;15.43;100.00;100305.77;1512891;86;21607;-78
2023/06/19 00:53:13;;;;;;;14.10;9.10;;;;;;;15.42;100.00;100310.28;1491389;86;21374;-79
2023/06/19 00:55:40;;;;;;;12.00;10.00;;;;;;;15.41;100.00;100313.11;1514662;86;21432;-79
2023/06/19 00:58:07;;;;;;;10.93;9.23;;;;;;;15.38;100.00;100306.81;1492090;86;21396;-78
2023/06/19 01:00:34;;;;;;;16.27;10.40;;;;;;;15.35;100.00;100310.16;1503709;86;21535;-79
2023/06/19 01:03:01;;;;;;;13.27;9.97;;;;;;;15.35;100.00;100309.33;1509273;86;22335;-79
2023/06/19 01:05:29;;;;;;;15.73;9.77;;;;;;;15.34;100.00;100308.51;1506801;86;21367;-79
2023/06/19 01:08:24;;;;;;;11.07;9.40;;;;;;;15.38;100.00;100304.14;1520886;86;21521;-79
2023/06/19 01:10:56;;;;;;;11.93;9.37;;;;;;;15.37;100.00;100299.83;1507889;86;21412;-78
2023/06/19 01:14:02;;;;;;;14.57;11.00;;;;;;;15.33;100.00;100296.67;1503091;86;21591;-78
2023/06/19 01:16:31;;;;;;;11.63;9.87;;;;;;;15.29;100.00;100300.22;1510009;86;21477;-79
2023/06/19 01:18:59;;;;;;;11.30;10.13;;;;;;;15.26;100.00;100299.77;1512368;86;21595;-79
2023/06/19 01:21:26;;;;;;;10.70;9.43;;;;;;;15.25;100.00;100306.94;1508897;86;21447;-79
2023/06/19 01:23:54;;;;;;;10.60;9.50;;;;;;;15.23;100.00;100303.61;1504108;86;21388;-80
2023/06/19 01:26:27;;;;;;;10.53;9.43;;;;;;;15.23;100.00;100303.61;1498959;86;21853;-79
2023/06/19 01:28:55;;;;;;;12.37;9.60;;;;;;;15.24;100.00;100298.59;1483529;86;22379;-79
2023/06/19 01:31:27;;;;;;;12.73;10.13;;;;;;;15.26;100.00;100303.25;1509589;86;21389;-80
2023/06/19 01:33:56;;;;;;;13.63;9.80;;;;;;;15.28;100.00;100307.08;1506187;86;21410;-80
2023/06/19 01:36:24;;;;;;;10.17;9.07;;;;;;;15.27;100.00;100304.89;1511134;86;22319;-80
2023/06/19 01:38:55;;;;;;;16.30;10.33;;;;;;;15.24;100.00;100301.26;1508957;86;21425;-81
2023/06/19 01:41:24;;;;;;;24.95;11.03;;;;;;;15.23;100.00;100304.95;1486304;86;21490;-80
2023/06/19 01:43:53;;;;;;;10.60;8.67;;;;;;;15.21;100.00;100295.47;1508409;86;21395;-81
2023/06/19 01:46:20;;;;;;;12.20;9.10;;;;;;;15.21;100.00;100294.95;1507382;86;21521;-79
2023/06/19 01:48:47;;;;;;;11.27;9.27;;;;;;;15.19;100.00;100290.34;1509966;86;21439;-80
2023/06/19 01:51:18;;;;;;;12.17;10.13;;;;;;;15.14;100.00;100293.22;1490766;86;21433;-80
2023/06/19 01:53:46;;;;;;;14.30;9.57;;;;;;;15.06;100.00;100295.44;1500837;86;21491;-80
2023/06/19 01:56:13;;;;;;;11.23;10.07;;;;;;;15.02;100.00;100295.48;1489720;86;21439;-79
2023/06/19 01:58:40;;;;;;;14.83;9.83;;;;;;;15.00;100.00;100303.65;1511388;86;21380;-77
2023/06/19 02:01:07;;;;;;;10.97;9.63;;;;;;;15.00;100.00;100306.31;1506174;86;21521;-78
2023/06/19 02:03:34;;;;;;;17.03;10.57;;;;;;;15.00;100.00;100308.16;1508441;86;21313;-78
2023/06/19 02:06:01;;;;;;;10.93;9.83;;;;;;;15.01;100.00;100312.47;1513636;86;21648;-78
2023/06/19 02:08:28;;;;;;;9.63;8.63;;;;;;;15.01;100.00;100309.80;1490595;86;21568;-78
2023/06/19 02:10:56;;;;;;;12.37;8.97;;;;;;;15.04;100.00;100313.44;1487344;86;21425;-78
2023/06/19 02:13:23;;;;;;;12.70;8.87;;;;;;;15.01;100.00;100309.30;1510341;86;21396;-78
2023/06/19 02:15:51;;;;;;;10.03;8.90;;;;;;;15.00;100.00;100309.48;1508683;86;22319;-78
2023/06/19 02:18:19;;;;;;;13.50;9.33;;;;;;;15.02;100.00;100303.48;1503561;86;21329;-77
2023/06/19 02:20:46;;;;;;;10.23;8.10;;;;;;;15.00;100.00;100307.64;1511785;86;21565;-78
2023/06/19 02:23:13;;;;;;;11.40;8.30;;;;;;;14.97;100.00;100303.19;1511273;86;21402;-78
2023/06/19 02:25:41;;;;;;;10.17;8.50;;;;;;;14.93;100.00;100304.53;1503810;86;22867;-79
2023/06/19 02:28:08;;;;;;;9.20;8.23;;;;;;;14.89;100.00;100308.89;1503288;86;21513;-77
2023/06/19 02:30:35;;;;;;;10.97;8.13;;;;;;;14.83;100.00;100309.61;1508274;86;21396;-78
2023/06/19 02:33:02;;;;;;;10.37;9.07;;;;;;;14.78;100.00;100313.30;1509524;86;21314;-78
2023/06/19 02:35:29;;;;;;;11.07;9.07;;;;;;;14.73;100.00;100317.02;1517113;86;21579;-77
2023/06/19 02:37:57;;;;;;;11.23;9.63;;;;;;;14.71;100.00;100313.70;1509679;86;22252;-78
2023/06/19 02:40:25;;;;;;;13.03;9.80;;;;;;;14.71;100.00;100319.03;1505527;86;21647;-78
2023/06/19 02:42:52;;;;;;;11.97;8.67;;;;;;;14.72;100.00;100322.00;1512472;86;21337;-77
2023/06/19 02:45:19;;;;;;;9.27;7.70;;;;;;;14.73;100.00;100318.83;1516707;86;21367;-78
2023/06/19 02:47:46;;;;;;;8.87;7.87;;;;;;;14.73;100.00;100320.16;1508824;86;21997;-78
2023/06/19 02:50:13;;;;;;;10.20;8.17;;;;;;;14.75;100.00;100319.49;1507791;86;22297;-78
2023/06/19 02:52:40;;;;;;;13.07;9.87;;;;;;;14.75;100.00;100317.66;1510330;86;21485;-78
2023/06/19 02:55:08;;;;;;;12.23;10.40;;;;;;;14.73;100.00;100319.69;1504339;86;22216;-78
2023/06/19 02:57:35;;;;;;;12.60;9.03;;;;;;;14.74;100.00;100320.52;1492744;86;22261;-78
2023/06/19 03:00:05;;;;;;;11.23;9.50;;;;;;;14.75;100.00;100317.66;1517863;86;21381;-78
2023/06/19 03:02:33;;;;;;;10.90;8.40;;;;;;;14.78;100.00;100317.80;1513005;86;21431;-78
2023/06/19 03:05:00;;;;;;;11.97;8.93;;;;;;;14.80;100.00;100319.29;1509503;86;21447;-78
2023/06/19 03:07:28;;;;;;;12.70;9.83;;;;;;;14.77;100.00;100323.64;1506856;86;22439;-80
2023/06/19 03:09:55;;;;;;;14.20;10.30;;;;;;;14.74;100.00;100330.66;1506438;86;21558;-80
2023/06/19 03:12:23;;;;;;;12.60;9.90;;;;;;;14.72;100.00;100323.34;1509715;86;21388;-80
2023/06/19 03:14:50;;;;;;;11.47;9.40;;;;;;;14.72;100.00;100326.00;1510579;86;22438;-80
2023/06/19 03:17:17;;;;;;;11.83;9.13;;;;;;;14.73;100.00;100333.00;1513243;86;21388;-79
2023/06/19 03:19:44;;;;;;;12.03;9.83;;;;;;;14.71;100.00;100327.02;1508076;86;22321;-79
2023/06/19 03:22:11;;;;;;;14.13;10.30;;;;;;;14.74;100.00;100333.32;1501183;86;21351;-81
2023/06/19 03:24:38;;;;;;;10.87;9.57;;;;;;;14.78;100.00;100328.46;1507641;86;21589;-79
2023/06/19 03:27:06;;;;;;;11.83;9.93;;;;;;;14.82;100.00;100330.61;1509733;86;21411;-79
2023/06/19 03:29:33;;;;;;;12.97;10.73;;;;;;;14.83;100.00;100334.91;1506989;86;21447;-80
2023/06/19 03:32:00;;;;;;;13.47;10.53;;;;;;;14.83;100.00;100340.25;1517105;86;21315;-80
2023/06/19 03:34:27;;;;;;;13.03;10.63;;;;;;;14.85;100.00;100338.75;1514253;86;21299;-79
2023/06/19 03:36:55;;;;;;;11.17;9.90;;;;;;;14.89;100.00;100341.38;1513938;86;21440;-80
2023/06/19 03:39:22;;;;;;;11.77;9.60;;;;;;;14.95;100.00;100338.50;1503393;86;21448;-80
2023/06/19 03:41:49;;;;;;;11.17;9.53;;;;;;;15.02;100.00;100339.46;1510843;86;21448;-81
2023/06/19 03:44:16;;;;;;;11.37;9.67;;;;;;;15.06;100.00;100340.75;1507368;86;21411;-81
2023/06/19 03:46:43;;;;;;;12.33;9.90;;;;;;;15.14;100.00;100343.86;1509869;86;22571;-80
2023/06/19 03:49:11;;;;;;;14.63;9.30;;;;;;;15.18;100.00;100333.98;1504055;86;21344;-80
2023/06/19 03:51:38;;;;;;;14.33;9.97;;;;;;;15.22;100.00;100341.95;1501763;86;21270;-81
2023/06/19 03:54:06;;;;;;;16.80;10.33;;;;;;;15.26;100.00;100336.58;1488936;86;22481;-81
2023/06/19 03:56:33;;;;;;;14.57;9.70;;;;;;;15.29;100.00;100336.72;1513067;86;21381;-81
2023/06/19 03:59:00;;;;;;;13.27;9.67;;;;;;;15.33;100.00;100332.20;1504362;86;21381;-81
2023/06/19 04:01:27;;;;;;;10.67;9.33;;;;;;;15.35;100.00;100338.16;1487295;86;21366;-80
2023/06/19 04:03:54;;;;;;;12.30;9.60;;;;;;;15.35;100.00;100335.48;1506558;86;22378;-81
2023/06/19 04:06:22;;;;;;;13.77;9.33;;;;;;;15.40;100.00;100337.62;1499786;86;21455;-79
2023/06/19 04:08:49;;;;;;;11.63;8.53;;;;;;;15.46;100.00;100348.07;1507497;86;21366;-79
2023/06/19 04:11:17;;;;;;;10.90;9.53;;;;;;;15.49;100.00;100349.04;1514659;86;22283;-79
2023/06/19 04:13:44;;;;;;;9.37;8.47;;;;;;;15.49;100.00;100347.70;1512460;86;21514;-80
2023/06/19 04:16:11;;;;;;;11.93;8.53;;;;;;;15.52;100.00;100352.17;1490446;86;22282;-80
2023/06/19 04:18:38;;;;;;;8.57;7.77;;;;;;;15.58;100.00;100346.61;1508910;86;21359;-79
2023/06/19 04:21:07;;;;;;;9.87;8.83;;;;;;;15.64;100.00;100349.88;1507473;86;21439;-78
2023/06/19 04:23:34;;;;;;;10.43;8.27;;;;;;;15.73;100.00;100356.81;1511956;86;21380;-78
2023/06/19 04:26:02;;;;;;;13.40;8.90;;;;;;;15.79;100.00;100357.44;1508378;86;21462;-79
2023/06/19 04:28:29;;;;;;;11.40;8.20;;;;;;;15.88;100.00;100360.85;1516085;86;21397;-82
2023/06/19 04:30:59;;;;;;;9.93;8.50;;;;;;;15.95;100.00;100357.75;1506919;86;22361;-81
2023/06/19 04:33:29;;;;;;;10.07;8.47;;;;;;;16.05;100.00;100362.80;1511629;86;22308;-83
2023/06/19 04:35:56;;;;;;;9.43;7.70;;;;;;;16.16;100.00;100361.00;1509712;86;21572;-80
2023/06/19 04:38:24;;;;;;;9.57;8.57;;;;;;;16.24;100.00;100362.75;1506043;86;22371;-81
2023/06/19 04:40:51;;;;;;;12.00;9.30;;;;;;;16.30;100.00;100359.84;1514055;86;21293;-81
2023/06/19 04:43:19;;;;;;;9.23;8.33;;;;;;;16.41;100.00;100359.37;1505397;86;21492;-80
2023/06/19 04:45:46;;;;;;;12.73;7.80;;;;;;;16.49;100.00;100354.44;1503166;86;21461;-81
2023/06/19 04:48:14;;;;;;;12.30;8.80;;;;;;;16.55;100.00;100355.02;1510678;86;22246;-80
2023/06/19 04:50:41;;;;;;;11.93;8.47;;;;;;;16.57;100.00;100355.63;1503230;86;21893;-80
2023/06/19 04:53:08;;;;;;;11.83;8.93;;;;;;;16.57;100.00;100356.48;1491056;86;22292;-80
2023/06/19 04:55:35;;;;;;;10.73;9.20;;;;;;;16.59;100.00;100356.28;1507301;86;21469;-81
2023/06/19 04:58:02;;;;;;;10.60;8.00;;;;;;;16.67;100.00;100362.85;1487572;86;21381;-82
2023/06/19 05:00:29;;;;;;;10.50;8.13;;;;;;;16.79;100.00;100356.53;1505639;86;21618;-81
2023/06/19 05:03:00;;;;;;;10.37;7.93;;;;;;;16.86;100.00;100365.42;1507361;86;21440;-82
2023/06/19 05:05:29;;;;;;;10.23;8.53;;;;;;;16.92;100.00;100364.69;1509059;86;21425;-79
2023/06/19 05:07:56;;;;;;;11.35;8.28;;;;;;;17.02;100.00;100360.36;1507398;86;21498;-79
2023/06/19 05:10:23;;;;;;;11.87;8.40;;;;;;;17.17;100.00;100356.27;1503440;86;21580;-80
2023/06/19 05:12:50;;;;;;;9.97;8.97;;;;;;;17.33;100.00;100358.68;1482155;86;21388;-78
2023/06/19 05:15:18;;;;;;;14.30;9.63;;;;;;;17.45;100.00;100365.15;1500909;86;21632;-79
2023/06/19 05:17:46;;;;;;;12.47;9.10;;;;;;;17.62;100.00;100369.70;1517709;86;21549;-79
2023/06/19 05:20:13;;;;;;;9.43;8.53;;;;;;;17.79;100.00;100372.94;1512620;86;22261;-79
2023/06/19 05:22:40;;;;;;;11.63;8.47;;;;;;;17.91;100.00;100375.38;1495030;86;21321;-80
2023/06/19 05:25:09;;;;;;;10.70;8.83;;;;;;;17.94;100.00;100381.67;1518075;86;21568;-80
2023/06/19 05:27:36;;;;;;;10.30;7.70;;;;;;;17.96;100.00;100378.30;1507914;86;21411;-78
2023/06/19 05:30:05;;;;;;;12.28;7.30;;;;;;;17.95;100.00;100383.35;1513023;86;21417;-81
2023/06/19 05:32:32;;;;;;;12.03;7.90;;;;;;;17.98;100.00;100382.10;1509778;86;21536;-81
2023/06/19 05:34:59;;;;;;;10.75;8.05;;;;;;;18.09;100.00;100380.73;1505733;86;21418;-82
2023/06/19 05:37:27;;;;;;;9.55;8.18;;;;;;;18.21;100.00;100384.00;1500926;86;21351;-85
2023/06/19 05:40:06;;;;;;;14.03;8.05;;;;;;;18.36;100.00;100387.88;1504905;86;21478;-84
2023/06/19 05:42:33;;;;;;;11.43;7.08;;;;;;;18.46;100.00;100379.46;1490487;86;21462;-85
2023/06/19 05:45:00;;;;;;;8.05;7.25;;;;;;;18.58;100.00;100387.75;1507937;86;22281;-85
2023/06/19 05:47:28;;;;;;;9.03;6.28;;;;;;;18.68;100.00;100380.16;1509221;86;21329;-85
2023/06/19 05:49:56;;;;;;;11.78;7.47;;;;;;;18.85;100.00;100388.18;1477578;86;22924;-85
2023/06/19 05:52:42;;;;;;;8.15;7.25;;;;;;;19.02;100.00;100380.59;1510030;86;21410;-84
2023/06/19 05:55:08;;;;;;;19.37;6.50;;;;;;;19.17;100.00;100380.39;1494687;86;22446;-84
2023/06/19 05:57:35;;;;;;;8.73;6.90;;;;;;;19.26;98.48;100381.02;1513822;86;21380;-84
2023/06/19 06:00:14;;;;;;;7.78;6.97;;;;;;;19.40;99.27;100388.04;1510682;86;22341;-84
2023/06/19 06:02:41;;;;;;;9.28;6.03;;;;;;;19.46;96.77;100390.41;1511077;86;21373;-86
2023/06/19 06:05:09;;;;;;;6.22;5.62;;;;;;;19.58;96.00;100390.09;1502089;86;21581;-85
2023/06/19 06:07:36;;;;;;;9.68;6.83;;;;;;;19.71;96.25;100392.81;1499472;85;21462;-85
2023/06/19 06:10:07;;;;;;;7.30;5.72;;;;;;;19.76;95.01;100392.98;1501203;86;21359;-86
2023/06/19 06:12:46;;;;;;;6.50;5.62;;;;;;;19.80;93.93;100395.58;1505619;86;21455;-85
2023/06/19 06:15:13;;;;;;;10.65;6.45;;;;;;;19.76;91.15;100394.33;1508962;86;21610;-87
2023/06/19 06:17:40;;;;;;;6.87;6.20;;;;;;;19.79;92.99;100397.97;1511300;86;21427;-85
2023/06/19 06:20:12;;;;;;;7.25;6.17;;;;;;;19.89;90.84;100398.05;1492592;86;22268;-88
2023/06/19 06:22:40;;;;;;;9.70;6.33;;;;;;;19.90;91.46;100397.00;1489491;86;21469;-85
2023/06/19 06:25:10;;;;;;;10.82;6.10;;;;;;;20.10;92.56;100403.69;1512669;86;21380;-85
2023/06/19 06:27:37;;;;;;;7.30;5.70;;;;;;;20.23;91.75;100404.48;1486296;86;22217;-86
2023/06/19 06:30:05;;;;;;;8.23;5.08;;;;;;;20.28;89.03;100410.54;1501695;86;21352;-86
2023/06/19 06:32:33;;;;;;;5.28;4.70;;;;;;;20.60;90.25;100408.81;1505621;86;21381;-87
2023/06/19 06:35:01;;;;;;;7.37;5.33;;;;;;;20.60;90.25;100408.81;1505707;86;21491;-87
2023/06/19 06:37:28;;;;;;;6.72;5.72;;;;;;;20.78;88.29;100408.62;1491739;86;22746;-87
2023/06/19 06:39:55;;;;;;;8.88;5.85;;;;;;;20.93;89.26;100408.62;1513512;86;21373;-90
2023/06/19 06:42:23;;;;;;;12.25;5.50;;;;;;;21.16;87.33;100409.41;1495992;86;22311;-86
2023/06/19 06:44:50;;;;;;;6.10;5.45;;;;;;;21.16;87.33;100409.41;1505313;86;21433;-85
2023/06/19 06:47:19;;;;;;;15.30;6.12;;;;;;;21.35;88.75;100406.81;1511033;86;21484;-85
2023/06/19 06:49:46;;;;;;;7.50;5.87;;;;;;;21.54;88.38;100401.80;1516863;86;22254;-86
2023/06/19 06:52:14;;;;;;;13.75;5.97;;;;;;;21.72;87.76;100404.23;1512337;86;22343;-86
2023/06/19 06:54:41;;;;;;;9.40;5.80;;;;;;;21.78;85.98;100404.19;1511993;86;22245;-85
2023/06/19 06:57:08;;;;;;;7.83;6.17;;;;;;;21.79;83.68;100406.36;1507895;86;21551;-86
2023/06/19 06:59:35;;;;;;;8.28;6.15;;;;;;;21.83;85.01;100407.55;1513098;86;21380;-84
2023/06/19 07:02:03;;;;;;;8.18;5.40;;;;;;;21.98;85.67;100401.30;1514442;86;22363;-85
2023/06/19 07:04:30;;;;;;;6.37;4.30;;;;;;;22.07;84.34;100402.65;1509483;86;21366;-84
2023/06/19 07:06:58;;;;;;;9.95;5.12;;;;;;;22.19;84.71;100401.94;1503590;86;21344;-87
2023/06/19 07:09:25;;;;;;;6.58;5.37;;;;;;;22.36;83.79;100409.72;1491180;86;21446;-85
2023/06/19 07:11:52;;;;;;;7.45;5.15;;;;;;;22.44;82.01;100409.42;1510084;86;21351;-85
2023/06/19 07:14:19;;;;;;;6.72;4.55;;;;;;;22.46;81.35;100410.52;1513188;86;21329;-85
2023/06/19 07:16:46;;;;;;;8.80;5.75;;;;;;;22.39;79.63;100410.61;1494814;86;22845;-85
2023/06/19 07:19:14;;;;;;;9.08;4.92;;;;;;;22.46;78.63;100412.69;1503614;86;21481;-84
2023/06/19 07:21:42;;;;;;;9.35;4.78;;;;;;;22.52;78.31;100410.44;1513254;86;21307;-84
2023/06/19 07:24:09;;;;;;;5.22;4.72;;;;;;;22.65;77.00;100415.38;1506943;86;21342;-85
2023/06/19 07:26:37;;;;;;;5.62;4.35;;;;;;;22.84;79.51;100421.02;1494048;86;21395;-85
2023/06/19 07:29:04;;;;;;;5.15;4.40;;;;;;;22.98;77.20;100425.73;1510624;86;21366;-85
2023/06/19 07:31:31;;;;;;;9.45;4.30;;;;;;;23.05;77.03;100422.44;1507940;86;21514;-84
2023/06/19 07:33:58;;;;;;;8.48;4.87;;;;;;;23.17;74.50;100426.52;1515870;86;21337;-86
2023/06/19 07:36:25;;;;;;;4.65;4.10;;;;;;;23.18;75.53;100422.75;1512071;86;21410;-85
2023/06/19 07:38:53;;;;;;;6.47;4.85;;;;;;;23.26;73.61;100422.42;1507261;86;22260;-87
2023/06/19 07:41:20;;;;;;;10.10;5.08;;;;;;;23.34;74.99;100422.09;1515323;86;21521;-85
2023/06/19 07:43:47;;;;;;;6.35;4.72;;;;;;;23.55;75.91;100407.73;1482786;86;21411;-86
2023/06/19 07:46:15;;;;;;;10.48;4.87;;;;;;;23.73;75.74;100409.00;1511474;86;22772;-85
2023/06/19 07:48:42;;;;;;;8.03;5.53;;;;;;;23.80;74.02;100413.77;1508882;86;21551;-85
2023/06/19 07:51:10;;;;;;;9.90;4.58;;;;;;;23.91;73.74;100408.58;1514592;86;22319;-85
2023/06/19 07:53:39;;;;;;;5.90;4.22;;;;;;;24.06;74.25;100404.89;1508625;86;21586;-86
2023/06/19 07:56:06;;;;;;;5.12;4.65;;;;;;;24.30;74.68;100411.88;1511896;86;21351;-86
2023/06/19 07:58:33;;;;;;;4.83;4.35;;;;;;;24.47;72.56;100415.23;1489865;86;21394;-86
2023/06/19 08:01:01;;;;;;;9.95;4.17;;;;;;;24.54;70.23;100407.78;1507596;86;21550;-86
2023/06/19 08:03:28;;;;;;;11.78;4.30;;;;;;;24.65;69.95;100408.28;1505957;86;21292;-85
2023/06/19 08:05:55;;;;;;;4.03;3.65;;;;;;;24.86;70.22;100411.38;1506751;86;21381;-86
2023/06/19 08:08:22;;;;;;;6.25;3.95;;;;;;;24.97;67.43;100407.78;1509838;86;21446;-84
2023/06/19 08:10:49;;;;;;;5.15;4.10;;;;;;;24.83;63.01;100407.80;1509347;86;21322;-85
2023/06/19 08:13:17;;;;;;;7.30;3.67;;;;;;;24.82;65.41;100412.93;1486170;86;21345;-89
2023/06/19 08:15:45;;;;;;;7.33;4.33;;;;;;;24.88;66.76;100414.13;1509499;86;22284;-86
2023/06/19 08:18:12;;;;;;;4.30;3.72;;;;;;;25.01;67.07;100411.67;1506175;86;21521;-85
2023/06/19 08:20:39;;;;;;;4.72;4.05;;;;;;;25.21;66.82;100414.77;1493065;86;21381;-84
2023/06/19 08:23:06;;;;;;;4.65;3.80;;;;;;;25.44;66.69;100417.04;1507128;86;22277;-85
2023/06/19 08:25:33;;;;;;;8.73;3.65;;;;;;;25.59;63.49;100425.40;1515234;86;21476;-84
2023/06/19 08:28:01;;;;;;;3.52;3.20;;;;;;;25.65;62.58;100422.23;1513489;86;21507;-85
2023/06/19 08:30:28;;;;;;;5.10;3.70;;;;;;;25.60;50.39;100424.86;1503574;86;21411;-85
2023/06/19 08:32:55;;;;;;;7.67;3.60;;;;;;;25.71;54.39;100421.78;1507163;86;21490;-85
2023/06/19 08:35:24;;;;;;;3.83;3.50;;;;;;;25.83;54.17;100409.80;1514796;86;22364;-82
2023/06/19 08:37:51;;;;;;;5.33;3.60;;;;;;;25.91;51.64;100413.16;1500346;86;21387;-83
2023/06/19 08:40:19;;;;;;;3.92;3.52;;;;;;;25.97;53.85;100406.20;1514224;86;21602;-84
2023/06/19 08:42:47;;;;;;;7.97;3.90;;;;;;;26.08;50.40;100409.34;1511032;86;21329;-84
2023/06/19 08:45:15;;;;;;;5.30;4.12;;;;;;;26.17;52.54;100410.27;1507101;86;21982;-84
2023/06/19 08:47:43;;;;;;;6.42;4.03;;;;;;;26.32;52.82;100403.13;1512463;86;21506;-85
2023/06/19 08:50:10;;;;;;;4.05;3.65;;;;;;;26.32;50.71;100403.13;1505892;86;21374;-84
2023/06/19 08:52:37;;;;;;;4.45;3.27;;;;;;;26.40;51.16;100403.77;1515663;86;21849;-81
2023/06/19 08:55:06;;;;;;;5.67;3.42;;;;;;;26.48;50.81;100400.08;1479954;86;22157;-83
2023/06/19 08:57:40;;;;;;;5.20;3.65;;;;;;;26.60;50.76;100398.61;1509353;86;21314;-83
2023/06/19 09:00:10;;;;;;;5.08;3.70;;;;;;;26.54;42.68;100396.37;1508686;86;21329;-84
2023/06/19 09:02:45;;;;;;;7.62;3.72;;;;;;;26.59;45.08;100402.95;1506379;86;22276;-84
2023/06/19 09:05:17;;;;;;;4.33;3.85;;;;;;;26.67;46.10;100401.96;1518595;86;22327;-82
2023/06/19 09:07:50;;;;;;;4.42;3.20;;;;;;;26.64;43.33;100399.73;1502761;86;21366;-83
2023/06/19 09:10:19;;;;;;;7.05;3.55;;;;;;;26.74;45.51;100401.75;1507681;86;21501;-83
2023/06/19 09:13:04;;;;;;;5.53;3.30;;;;;;;26.82;45.59;100397.77;1509340;86;21388;-84
2023/06/19 09:15:35;;;;;;;4.40;3.30;;;;;;;26.77;41.94;100402.05;1505132;86;22283;-83
2023/06/19 09:18:10;;;;;;;3.77;3.47;;;;;;;26.94;44.69;100401.95;1498930;86;21535;-84
2023/06/19 09:20:44;;;;;;;4.03;3.47;;;;;;;27.04;44.33;100401.22;1511372;86;21485;-84
2023/06/19 09:23:12;;;;;;;4.10;3.20;;;;;;;27.18;44.60;100397.03;1513964;86;21395;-87
2023/06/19 09:25:49;;;;;;;5.30;3.20;;;;;;;27.26;43.86;100406.63;1501035;86;21336;-84
2023/06/19 09:28:27;;;;;;;4.28;3.70;;;;;;;27.26;43.17;100405.27;1509075;86;21306;-85
2023/06/19 09:31:01;;;;;;;4.03;3.15;;;;;;;27.39;44.15;100406.20;1507819;86;22275;-84
2023/06/19 09:33:32;;;;;;;3.87;3.27;;;;;;;27.53;42.78;100407.91;1485024;86;21439;-85
2023/06/19 09:36:02;;;;;;;4.87;3.25;;;;;;;27.61;42.50;100403.35;1506757;86;22342;-85
2023/06/19 09:38:30;;;;;;;;;;;;;;;27.78;43.04;100412.71;1511728;86;21447;-85
2023/06/19 09:41:01;;;;;;;4.12;3.08;;;;;;;27.75;42.28;100408.34;1500089;86;20803;-84
2023/06/19 09:43:44;;;;;;;3.50;2.85;;;;;;;27.77;40.99;100411.63;1481705;86;21403;-85
2023/06/19 09:46:12;;;;;;;2.95;2.65;;;;;;;27.77;41.32;100408.91;1505394;86;22274;-83
2023/06/19 09:48:46;;;;;;;4.20;2.67;;;;;;;27.78;41.27;100405.91;1502847;86;21492;-85
2023/06/19 09:51:23;;;;;;;4.87;3.25;;;;;;;27.68;39.25;100404.50;1513814;86;21521;-82
2023/06/19 09:53:51;;;;;;;5.35;2.77;;;;;;;27.62;39.60;100410.45;1493260;86;21675;-85
2023/06/19 09:56:24;;;;;;;7.05;3.05;;;;;;;27.60;37.16;100402.27;1508078;86;21322;-86
2023/06/19 09:58:53;;;;;;;5.17;3.30;;;;;;;27.61;39.30;100401.18;1504930;86;21520;-85
2023/06/19 10:01:21;;;;;;;3.52;3.00;;;;;;;27.62;39.30;100404.16;1489999;86;21461;-83
2023/06/19 10:03:48;;;;;;;3.37;3.08;;;;;;;27.65;40.20;100399.59;1504000;86;21844;-83
2023/06/19 10:06:18;;;;;;;6.30;2.85;;;;;;;27.56;39.63;100393.80;1508382;86;22282;-85
2023/06/19 10:08:46;;;;;;;6.42;3.65;;;;;;;27.54;40.29;100389.73;1466033;86;22402;-84
2023/06/19 10:11:14;;;;;;;3.60;3.27;;;;;;;27.57;40.28;100393.28;1508976;86;21432;-85
2023/06/19 10:13:43;;;;;;;6.25;2.90;;;;;;;27.77;41.42;100392.59;1507558;86;21389;-86
2023/06/19 10:16:24;;;;;;;6.67;3.37;;;;;;;27.93;40.23;100388.89;1512040;86;21403;-85
2023/06/19 10:18:51;;;;;;;5.00;3.10;;;;;;;28.12;40.95;100383.84;1520948;86;21373;-84
2023/06/19 10:21:20;;;;;;;4.37;2.90;;;;;;;28.19;37.88;100383.03;1510288;86;22260;-84
2023/06/19 10:24:00;;;;;;;5.33;3.10;;;;;;;28.19;39.54;100383.03;1514409;86;21513;-88
2023/06/19 10:26:32;;;;;;;;;;;;;;;28.06;39.61;100380.82;1515779;86;21411;-87
2023/06/19 10:29:00;;;;;;;2.75;2.52;;;;;;;27.83;38.94;100373.35;1508601;86;20431;-87
2023/06/19 10:31:32;;;;;;;10.98;3.20;;;;;;;27.45;37.33;100373.09;1502871;86;21529;-88
2023/06/19 10:33:57;;;;;;;3.27;2.83;;;;;;;27.48;40.22;100369.84;1503559;86;22497;-87
2023/06/19 10:36:27;;;;;;;7.15;3.25;;;;;;;27.79;41.64;100374.95;1503761;86;21424;-88
2023/06/19 10:38:55;;;;;;;3.55;3.22;;;;;;;28.07;41.40;100373.73;1506597;86;21395;-87
2023/06/19 10:41:25;;;;;;;7.85;3.33;;;;;;;28.32;41.10;100375.75;1512275;86;22364;-86
2023/06/19 10:44:04;;;;;;;;;;;;;;;28.50;40.72;100368.22;1410925;87;22180;-86
2023/06/19 10:46:38;;;;;;;6.08;2.62;;;;;;;28.73;40.61;100375.08;1426989;86;20750;-87
2023/06/19 10:49:06;;;;;;;5.87;3.00;;;;;;;28.93;40.97;100378.38;1572077;86;21381;-87
2023/06/19 10:51:43;;;;;;;4.85;3.45;;;;;;;29.12;41.13;100368.63;1426372;86;21218;-88
2023/06/19 10:54:10;;;;;;;6.15;3.15;;;;;;;29.37;40.11;100369.13;1597928;86;21202;-88
2023/06/19 10:56:38;;;;;;;3.72;3.12;;;;;;;29.49;39.98;100364.75;1429553;86;21366;-87
2023/06/19 10:59:09;;;;;;;4.75;3.08;;;;;;;29.29;39.23;100366.14;1436200;86;21359;-83
2023/06/19 11:01:44;;;;;;;2.85;2.65;;;;;;;29.08;38.89;100357.97;1597866;86;21176;-85
2023/06/19 11:04:14;;;;;;;4.03;3.20;;;;;;;28.90;39.53;100353.86;1425636;87;21300;-83
2023/06/19 11:06:43;;;;;;;4.20;3.10;;;;;;;29.08;40.43;100359.34;1433347;86;21470;-83
2023/06/19 11:09:12;;;;;;;3.90;2.75;;;;;;;29.23;39.51;100352.55;1597877;86;21197;-84
2023/06/19 11:11:44;;;;;;;5.80;2.83;;;;;;;29.03;38.67;100359.33;1584553;86;21299;-86
2023/06/19 11:14:14;;;;;;;3.33;2.40;;;;;;;28.99;39.19;100360.95;1508228;86;21374;-86
2023/06/19 11:16:46;;;;;;;6.40;2.90;;;;;;;28.83;38.08;100363.38;1512232;86;21574;-87
2023/06/19 11:19:19;;;;;;;3.83;3.15;;;;;;;28.69;37.48;100357.11;1496214;86;21580;-85
2023/06/19 11:21:51;;;;;;;4.03;2.92;;;;;;;28.65;38.84;100361.98;1512299;86;21632;-84
2023/06/19 11:24:20;;;;;;;3.87;3.45;;;;;;;28.85;38.98;100358.48;1507853;86;21558;-86